»·PEaware :: WAT311 KSAN-KMRY

WAT311 :: KSAN-KMRY

FLIGHT INFORMATION

Flight Status: Arrived
Operator:
Walker Air Transport
More flights by this operator :: More flights under this callsign
Pilot: Alex S. (20085)
Aircraft: SOCATA TBM-900
(TBM9)
More flights by this aircraft type
Origin: KSAN San Diego Intl-Lindbergh
United States
Destination: KMRY Monterey Peninsula
United States
More flights between these airports :: More routes between these airports
Route: +PADRZ2 IKAYE TESEA SCTRR WIGGL
File this flight plan on PilotEdge
Remarks:
Altitude:
(Current/Filed)
28,000ft
Speed:
(Current/Filed)
275kts
Departed: 18-Nov-20 04:50 PM
Arrived: 18-Nov-20 06:25 PM
Distance/Time
Traveled:
326nm/1:35
Distance/Time
To Go:
Arrived

Flight Plot

Page will automatically refresh every two minutes.

Flight plan parsing failed; only flown route is shown


Map Options




Map Legend


Flown Route
Filed Route
Departure Airport
Arrival Airport
Navaid (VOR, NDB)
Fix

Horizontal Profiles

Position Reports

Time Latitude Longitude Heading Altitude Ground
Speed
18-Nov-20 16:36 32.733871 -117.178903 244 20ft 0kts
18-Nov-20 16:37 32.733871 -117.178903 244 20ft 0kts
18-Nov-20 16:38 32.733871 -117.178903 244 20ft 0kts
18-Nov-20 16:39 32.733871 -117.178903 244 20ft 0kts
18-Nov-20 16:40 32.733871 -117.178903 244 20ft 0kts
18-Nov-20 16:41 32.733871 -117.178903 244 20ft 0kts
18-Nov-20 16:42 32.733871 -117.178903 244 20ft 0kts
18-Nov-20 16:43 32.733871 -117.178903 244 20ft 0kts
18-Nov-20 16:44 32.733871 -117.178903 244 20ft 0kts
18-Nov-20 16:45 32.733583 -117.179482 214 20ft 0kts
18-Nov-20 16:46 32.732998 -117.179703 196 20ft 8kts
18-Nov-20 16:46 32.731957 -117.178344 107 20ft 8kts
18-Nov-20 16:48 32.730931 -117.175392 184 20ft 0kts
18-Nov-20 16:48 32.730452 -117.176873 286 20ft 28kts
18-Nov-20 16:50 32.740525 -117.212268 312 1732ft 126kts
18-Nov-20 16:50 32.757582 -117.239593 301 3417ft 128kts
18-Nov-20 16:51 32.777072 -117.275870 298 5176ft 133kts
18-Nov-20 16:52 32.796582 -117.313200 297 6664ft 134kts
18-Nov-20 16:53 32.819506 -117.349214 301 7947ft 139kts
18-Nov-20 16:54 32.849243 -117.395381 303 8009ft 207kts
18-Nov-20 16:55 32.886556 -117.453274 303 7991ft 227kts
18-Nov-20 16:56 32.925533 -117.513869 303 7989ft 232kts
18-Nov-20 16:57 32.964973 -117.575321 302 7989ft 234kts
18-Nov-20 16:58 33.004555 -117.637103 302 7988ft 234kts
18-Nov-20 16:59 33.044091 -117.698908 301 7995ft 233kts
18-Nov-20 17:00 33.077696 -117.743262 308 10888ft 162kts
18-Nov-20 17:01 33.112530 -117.778997 307 12536ft 166kts
18-Nov-20 17:02 33.147961 -117.815123 307 14022ft 169kts
18-Nov-20 17:03 33.184155 -117.852018 307 15441ft 174kts
18-Nov-20 17:04 33.218874 -117.891684 303 17025ft 172kts
18-Nov-20 17:05 33.253484 -117.932913 303 18973ft 176kts
18-Nov-20 17:06 33.288595 -117.974817 302 20730ft 180kts
18-Nov-20 17:07 33.324303 -118.017477 302 22282ft 184kts
18-Nov-20 17:08 33.361653 -118.062266 304 23168ft 209kts
18-Nov-20 17:09 33.406519 -118.115973 305 23153ft 241kts
18-Nov-20 17:10 33.455904 -118.175187 305 23148ft 257kts
18-Nov-20 17:11 33.501863 -118.230279 304 24846ft 218kts
18-Nov-20 17:12 33.544993 -118.282274 304 25996ft 223kts
18-Nov-20 17:13 33.587630 -118.333540 303 27715ft 200kts
18-Nov-20 17:14 33.629151 -118.383895 304 28155ft 232kts
18-Nov-20 17:15 33.677479 -118.442297 305 28147ft 258kts
18-Nov-20 17:16 33.729352 -118.505090 305 28138ft 269kts
18-Nov-20 17:17 33.782326 -118.569354 305 28132ft 272kts
18-Nov-20 17:18 33.835956 -118.634550 305 28134ft 274kts
18-Nov-20 17:19 33.889896 -118.700249 305 28147ft 275kts
18-Nov-20 17:20 33.943817 -118.766045 305 28144ft 276kts
18-Nov-20 17:21 33.997986 -118.832272 305 28145ft 276kts
18-Nov-20 17:22 34.052084 -118.898543 305 28147ft 276kts
18-Nov-20 17:23 34.106097 -118.964843 305 28145ft 276kts
18-Nov-20 17:24 34.160513 -119.031104 306 28140ft 276kts
18-Nov-20 17:25 34.215335 -119.096401 306 28136ft 276kts
18-Nov-20 17:26 34.270188 -119.161798 306 28134ft 276kts
18-Nov-20 17:27 34.324835 -119.227103 306 28133ft 275kts
18-Nov-20 17:28 34.379366 -119.292416 306 28133ft 275kts
18-Nov-20 17:29 34.433712 -119.357635 306 28129ft 275kts
18-Nov-20 17:30 34.488248 -119.423213 306 28126ft 275kts
18-Nov-20 17:31 34.542559 -119.488647 306 28123ft 275kts
18-Nov-20 17:32 34.596653 -119.553947 306 28121ft 275kts
18-Nov-20 17:33 34.650886 -119.619542 306 28120ft 275kts
18-Nov-20 17:34 34.705271 -119.685449 305 28133ft 275kts
18-Nov-20 17:35 34.759272 -119.751018 305 28134ft 276kts
18-Nov-20 17:36 34.813897 -119.817470 305 28137ft 276kts
18-Nov-20 17:37 34.868392 -119.883908 305 28139ft 276kts
18-Nov-20 17:38 34.922875 -119.950425 305 28139ft 275kts
18-Nov-20 17:39 34.976454 -120.016003 304 28139ft 272kts
18-Nov-20 17:40 35.029602 -120.081172 303 28142ft 267kts
18-Nov-20 17:41 35.081762 -120.145277 303 28147ft 264kts
18-Nov-20 17:42 35.133044 -120.208422 303 28149ft 262kts
18-Nov-20 17:43 35.186868 -120.269818 310 28151ft 269kts
18-Nov-20 17:44 35.247102 -120.325026 310 28144ft 269kts
18-Nov-20 17:45 35.306872 -120.379758 310 28141ft 269kts
18-Nov-20 17:46 35.367103 -120.435019 311 28139ft 269kts
18-Nov-20 17:47 35.427090 -120.490152 310 28137ft 269kts
18-Nov-20 17:48 35.485749 -120.544132 310 27369ft 256kts
18-Nov-20 17:49 35.543978 -120.596850 314 24194ft 258kts
18-Nov-20 17:50 35.602703 -120.647309 314 24139ft 259kts
18-Nov-20 17:51 35.662000 -120.698418 314 24151ft 262kts
18-Nov-20 17:52 35.720315 -120.748817 314 22784ft 255kts
18-Nov-20 17:53 35.778126 -120.798826 315 20918ft 251kts
18-Nov-20 17:54 35.834245 -120.847450 316 19276ft 247kts
18-Nov-20 17:55 35.890138 -120.895971 317 17750ft 244kts
18-Nov-20 17:56 35.945405 -120.944033 318 16355ft 241kts
18-Nov-20 17:57 36.000047 -120.991626 319 15087ft 238kts
18-Nov-20 17:58 36.053869 -121.038591 319 13944ft 235kts
18-Nov-20 17:59 36.107238 -121.085239 320 12904ft 233kts
18-Nov-20 18:00 36.160488 -121.131863 320 11961ft 231kts
18-Nov-20 18:01 36.212657 -121.177607 320 11148ft 227kts
18-Nov-20 18:02 36.263655 -121.222414 320 10417ft 224kts
18-Nov-20 18:03 36.313918 -121.267492 319 9774ft 220kts
18-Nov-20 18:04 36.362578 -121.313785 319 9172ft 218kts
18-Nov-20 18:05 36.410337 -121.359457 319 8630ft 217kts
18-Nov-20 18:06 36.458238 -121.405354 320 8133ft 215kts
18-Nov-20 18:07 36.505159 -121.450384 320 7502ft 213kts
18-Nov-20 18:08 36.551303 -121.494748 320 6065ft 210kts
18-Nov-20 18:09 36.597341 -121.539059 321 4982ft 209kts
18-Nov-20 18:10 36.643924 -121.583971 321 4980ft 211kts
18-Nov-20 18:11 36.661856 -121.647359 268 4982ft 213kts
18-Nov-20 18:12 36.658536 -121.721417 267 4981ft 212kts
18-Nov-20 18:13 36.655237 -121.793642 267 3580ft 208kts
18-Nov-20 18:14 36.652079 -121.861951 266 3579ft 192kts
18-Nov-20 18:15 36.648975 -121.928202 265 3581ft 190kts
18-Nov-20 18:16 36.645824 -121.994501 265 3581ft 190kts
18-Nov-20 18:17 36.631188 -122.057016 246 3573ft 186kts
18-Nov-20 18:18 36.635255 -122.110415 350 2587ft 194kts
18-Nov-20 18:19 36.651438 -122.063686 83 2657ft 172kts
18-Nov-20 18:20 36.639410 -122.000019 114 2511ft 204kts
18-Nov-20 18:22 36.618450 -121.937640 114 1633ft 167kts
18-Nov-20 18:23 36.605423 -121.899001 114 928ft 94kts
18-Nov-20 18:24 36.594612 -121.866688 114 386ft 106kts
18-Nov-20 18:25 36.587352 -121.847618 258 186ft 0kts
18-Nov-20 18:26 36.587558 -121.848460 289 183ft 11kts
18-Nov-20 18:27 36.589082 -121.853126 293 166ft 15kts
18-Nov-20 18:28 36.588808 -121.853851 113 167ft 0kts

Navigation Log

Ident Type
Flight plan parsing failed, navigation log unavailable